North Falmouth, Massachusetts
Current Conditions -  °F | °C
As of 4:35 AM on Sunday 26 Oct 2014 (Local Time) from KFMH Reporting Station
Drizzle Drizzle  
Wind Chill: 57°   Ceiling: 5500
Heat Index: 57°   Visibility: 10mi
Dew Point: 46°   Wind: 8mph
Humidity: 67%   Direction: 280°W
Pressure: 29.45"   Gusts: NA
Location:  41.64°N, 70.63°W
Report Text: KFMH 260835Z AUTO 28007KT 10SM -DZ SCT049 BKN055 OVC070 14/08 A2945 RMK AO2
Loading
Personal Weather Stations






























Interactive Weather Map
Tropical Storm Tracking
New forecast layout! Learn more

10-Day Weather Forecast

Advertisements
Track Severe Weather on mobile